sensor_id;sensor_type;location;lat;lon;timestamp;P1;durP1;ratioP1;P2;durP2;ratioP2
10412;SDS011;5252;42.602;23.386;2022-11-30T00:00:19;9.95;;;7.10;;
10412;SDS011;5252;42.602;23.386;2022-11-30T00:02:46;9.98;;;7.68;;
10412;SDS011;5252;42.602;23.386;2022-11-30T00:05:17;11.38;;;7.82;;
10412;SDS011;5252;42.602;23.386;2022-11-30T00:07:44;12.25;;;8.32;;
10412;SDS011;5252;42.602;23.386;2022-11-30T00:10:12;10.18;;;7.90;;
10412;SDS011;5252;42.602;23.386;2022-11-30T00:12:39;11.98;;;8.10;;
10412;SDS011;5252;42.602;23.386;2022-11-30T00:15:07;12.88;;;8.50;;
10412;SDS011;5252;42.602;23.386;2022-11-30T00:17:35;11.15;;;8.85;;
10412;SDS011;5252;42.602;23.386;2022-11-30T00:20:01;11.05;;;8.45;;
10412;SDS011;5252;42.602;23.386;2022-11-30T00:22:28;11.18;;;7.90;;
10412;SDS011;5252;42.602;23.386;2022-11-30T00:24:55;11.30;;;8.43;;
10412;SDS011;5252;42.602;23.386;2022-11-30T00:27:26;9.93;;;7.63;;
10412;SDS011;5252;42.602;23.386;2022-11-30T00:29:52;11.13;;;8.02;;
10412;SDS011;5252;42.602;23.386;2022-11-30T00:32:19;12.93;;;8.88;;
10412;SDS011;5252;42.602;23.386;2022-11-30T00:34:45;11.05;;;8.05;;
10412;SDS011;5252;42.602;23.386;2022-11-30T00:37:12;10.75;;;8.02;;
10412;SDS011;5252;42.602;23.386;2022-11-30T00:39:39;10.00;;;7.95;;
10412;SDS011;5252;42.602;23.386;2022-11-30T00:42:06;11.57;;;8.38;;
10412;SDS011;5252;42.602;23.386;2022-11-30T00:44:34;12.18;;;7.82;;
10412;SDS011;5252;42.602;23.386;2022-11-30T00:47:00;13.00;;;8.80;;
10412;SDS011;5252;42.602;23.386;2022-11-30T00:49:27;10.55;;;7.97;;
10412;SDS011;5252;42.602;23.386;2022-11-30T00:51:54;11.52;;;8.35;;
10412;SDS011;5252;42.602;23.386;2022-11-30T00:54:20;12.52;;;8.85;;
10412;SDS011;5252;42.602;23.386;2022-11-30T00:56:47;12.35;;;8.90;;
10412;SDS011;5252;42.602;23.386;2022-11-30T00:59:14;13.63;;;9.52;;
10412;SDS011;5252;42.602;23.386;2022-11-30T01:01:42;15.10;;;10.90;;
10412;SDS011;5252;42.602;23.386;2022-11-30T01:04:09;18.10;;;11.32;;
10412;SDS011;5252;42.602;23.386;2022-11-30T01:06:35;16.42;;;11.70;;
10412;SDS011;5252;42.602;23.386;2022-11-30T01:09:02;14.88;;;10.30;;
10412;SDS011;5252;42.602;23.386;2022-11-30T01:11:29;17.60;;;11.73;;
10412;SDS011;5252;42.602;23.386;2022-11-30T01:13:57;16.40;;;11.68;;
10412;SDS011;5252;42.602;23.386;2022-11-30T01:16:25;15.70;;;11.15;;
10412;SDS011;5252;42.602;23.386;2022-11-30T01:18:53;14.05;;;10.43;;
10412;SDS011;5252;42.602;23.386;2022-11-30T01:21:21;12.85;;;9.82;;
10412;SDS011;5252;42.602;23.386;2022-11-30T01:23:48;10.85;;;8.27;;
10412;SDS011;5252;42.602;23.386;2022-11-30T01:26:15;9.48;;;7.78;;
10412;SDS011;5252;42.602;23.386;2022-11-30T01:28:41;7.90;;;6.07;;
10412;SDS011;5252;42.602;23.386;2022-11-30T01:31:10;8.35;;;5.57;;
10412;SDS011;5252;42.602;23.386;2022-11-30T01:33:37;5.32;;;4.63;;
10412;SDS011;5252;42.602;23.386;2022-11-30T01:36:06;7.78;;;5.30;;
10412;SDS011;5252;42.602;23.386;2022-11-30T01:38:35;11.77;;;5.20;;
10412;SDS011;5252;42.602;23.386;2022-11-30T01:41:03;7.05;;;5.18;;
10412;SDS011;5252;42.602;23.386;2022-11-30T01:43:39;7.65;;;5.38;;
10412;SDS011;5252;42.602;23.386;2022-11-30T01:46:14;6.18;;;5.30;;
10412;SDS011;5252;42.602;23.386;2022-11-30T01:48:43;7.78;;;6.30;;
10412;SDS011;5252;42.602;23.386;2022-11-30T01:51:11;11.68;;;5.72;;
10412;SDS011;5252;42.602;23.386;2022-11-30T01:53:38;6.90;;;5.70;;
10412;SDS011;5252;42.602;23.386;2022-11-30T01:56:05;9.10;;;5.72;;
10412;SDS011;5252;42.602;23.386;2022-11-30T01:58:31;9.82;;;6.13;;
10412;SDS011;5252;42.602;23.386;2022-11-30T02:01:00;14.90;;;6.30;;
10412;SDS011;5252;42.602;23.386;2022-11-30T02:03:29;61.45;;;7.47;;
10412;SDS011;5252;42.602;23.386;2022-11-30T02:05:58;139.00;;;8.93;;
10412;SDS011;5252;42.602;23.386;2022-11-30T02:08:27;9.23;;;6.88;;
10412;SDS011;5252;42.602;23.386;2022-11-30T02:10:54;12.13;;;6.53;;
10412;SDS011;5252;42.602;23.386;2022-11-30T02:13:28;41.13;;;7.47;;
10412;SDS011;5252;42.602;23.386;2022-11-30T02:15:58;21.67;;;7.53;;
10412;SDS011;5252;42.602;23.386;2022-11-30T02:18:29;71.90;;;8.38;;
10412;SDS011;5252;42.602;23.386;2022-11-30T02:20:58;26.73;;;7.00;;
10412;SDS011;5252;42.602;23.386;2022-11-30T02:23:32;6.97;;;5.88;;
10412;SDS011;5252;42.602;23.386;2022-11-30T02:26:05;16.45;;;7.05;;
10412;SDS011;5252;42.602;23.386;2022-11-30T02:28:44;18.60;;;13.50;;
10412;SDS011;5252;42.602;23.386;2022-11-30T02:31:18;9.23;;;7.22;;
10412;SDS011;5252;42.602;23.386;2022-11-30T02:33:46;12.55;;;10.13;;
10412;SDS011;5252;42.602;23.386;2022-11-30T02:36:13;18.80;;;6.75;;
10412;SDS011;5252;42.602;23.386;2022-11-30T02:38:41;31.25;;;7.93;;
10412;SDS011;5252;42.602;23.386;2022-11-30T02:41:08;11.68;;;9.00;;
10412;SDS011;5252;42.602;23.386;2022-11-30T02:43:35;9.57;;;8.02;;
10412;SDS011;5252;42.602;23.386;2022-11-30T02:46:04;9.43;;;7.07;;
10412;SDS011;5252;42.602;23.386;2022-11-30T02:48:36;126.80;;;60.65;;
10412;SDS011;5252;42.602;23.386;2022-11-30T02:51:05;12.00;;;9.10;;
10412;SDS011;5252;42.602;23.386;2022-11-30T02:53:33;14.05;;;10.07;;
10412;SDS011;5252;42.602;23.386;2022-11-30T02:55:59;15.00;;;12.45;;
10412;SDS011;5252;42.602;23.386;2022-11-30T02:58:26;8.38;;;7.10;;
10412;SDS011;5252;42.602;23.386;2022-11-30T03:00:53;8.07;;;6.13;;
10412;SDS011;5252;42.602;23.386;2022-11-30T03:03:21;9.52;;;6.93;;
10412;SDS011;5252;42.602;23.386;2022-11-30T03:05:48;8.10;;;6.47;;
10412;SDS011;5252;42.602;23.386;2022-11-30T03:08:14;9.52;;;7.25;;
10412;SDS011;5252;42.602;23.386;2022-11-30T03:10:41;10.05;;;7.30;;
10412;SDS011;5252;42.602;23.386;2022-11-30T03:13:08;10.98;;;7.70;;
10412;SDS011;5252;42.602;23.386;2022-11-30T03:15:34;8.32;;;6.88;;
10412;SDS011;5252;42.602;23.386;2022-11-30T03:18:01;8.52;;;6.65;;
10412;SDS011;5252;42.602;23.386;2022-11-30T03:20:29;9.75;;;6.80;;
10412;SDS011;5252;42.602;23.386;2022-11-30T03:22:57;9.57;;;6.88;;
10412;SDS011;5252;42.602;23.386;2022-11-30T03:25:24;9.52;;;7.65;;
10412;SDS011;5252;42.602;23.386;2022-11-30T03:27:51;10.18;;;7.60;;
10412;SDS011;5252;42.602;23.386;2022-11-30T03:30:17;11.20;;;8.82;;
10412;SDS011;5252;42.602;23.386;2022-11-30T03:32:44;11.38;;;8.27;;
10412;SDS011;5252;42.602;23.386;2022-11-30T03:35:11;11.25;;;8.95;;
10412;SDS011;5252;42.602;23.386;2022-11-30T03:37:39;11.50;;;8.85;;
10412;SDS011;5252;42.602;23.386;2022-11-30T03:40:06;10.98;;;8.40;;
10412;SDS011;5252;42.602;23.386;2022-11-30T03:42:33;10.18;;;7.70;;
10412;SDS011;5252;42.602;23.386;2022-11-30T03:45:00;11.80;;;9.15;;
10412;SDS011;5252;42.602;23.386;2022-11-30T03:47:26;10.85;;;8.77;;
10412;SDS011;5252;42.602;23.386;2022-11-30T03:49:53;11.23;;;8.65;;
10412;SDS011;5252;42.602;23.386;2022-11-30T03:52:20;10.95;;;8.68;;
10412;SDS011;5252;42.602;23.386;2022-11-30T03:54:48;12.77;;;8.85;;
10412;SDS011;5252;42.602;23.386;2022-11-30T03:57:14;12.05;;;9.27;;
10412;SDS011;5252;42.602;23.386;2022-11-30T03:59:41;12.18;;;8.70;;
10412;SDS011;5252;42.602;23.386;2022-11-30T04:02:08;10.00;;;7.43;;
10412;SDS011;5252;42.602;23.386;2022-11-30T04:04:34;12.65;;;8.85;;
10412;SDS011;5252;42.602;23.386;2022-11-30T04:07:01;12.00;;;9.07;;
10412;SDS011;5252;42.602;23.386;2022-11-30T04:09:28;24.63;;;8.80;;
10412;SDS011;5252;42.602;23.386;2022-11-30T04:11:56;10.27;;;8.15;;
10412;SDS011;5252;42.602;23.386;2022-11-30T04:14:23;148.70;;;9.23;;
10412;SDS011;5252;42.602;23.386;2022-11-30T04:16:50;265.63;;;10.52;;
10412;SDS011;5252;42.602;23.386;2022-11-30T04:19:16;24.70;;;6.88;;
10412;SDS011;5252;42.602;23.386;2022-11-30T04:21:43;108.20;;;7.95;;
10412;SDS011;5252;42.602;23.386;2022-11-30T04:24:10;284.05;;;12.57;;
10412;SDS011;5252;42.602;23.386;2022-11-30T04:26:36;116.95;;;7.55;;
10412;SDS011;5252;42.602;23.386;2022-11-30T04:29:04;103.53;;;7.20;;
10412;SDS011;5252;42.602;23.386;2022-11-30T04:31:31;183.77;;;9.75;;
10412;SDS011;5252;42.602;23.386;2022-11-30T04:33:58;255.43;;;10.98;;
10412;SDS011;5252;42.602;23.386;2022-11-30T04:36:24;271.02;;;12.68;;
10412;SDS011;5252;42.602;23.386;2022-11-30T04:38:51;258.33;;;11.50;;
10412;SDS011;5252;42.602;23.386;2022-11-30T04:41:18;28.35;;;6.93;;
10412;SDS011;5252;42.602;23.386;2022-11-30T04:43:44;259.70;;;11.45;;
10412;SDS011;5252;42.602;23.386;2022-11-30T04:46:13;113.88;;;7.85;;
10412;SDS011;5252;42.602;23.386;2022-11-30T04:48:40;28.88;;;6.40;;
10412;SDS011;5252;42.602;23.386;2022-11-30T04:51:09;103.65;;;7.72;;
10412;SDS011;5252;42.602;23.386;2022-11-30T04:53:36;39.00;;;14.68;;
10412;SDS011;5252;42.602;23.386;2022-11-30T04:56:05;53.10;;;8.98;;
10412;SDS011;5252;42.602;23.386;2022-11-30T04:58:33;34.92;;;12.23;;
10412;SDS011;5252;42.602;23.386;2022-11-30T05:01:00;29.73;;;9.40;;
10412;SDS011;5252;42.602;23.386;2022-11-30T05:03:29;15.35;;;10.15;;
10412;SDS011;5252;42.602;23.386;2022-11-30T05:05:56;19.45;;;6.90;;
10412;SDS011;5252;42.602;23.386;2022-11-30T05:08:26;6.32;;;4.88;;
10412;SDS011;5252;42.602;23.386;2022-11-30T05:10:56;36.38;;;5.88;;
10412;SDS011;5252;42.602;23.386;2022-11-30T05:13:25;12.50;;;5.13;;
10412;SDS011;5252;42.602;23.386;2022-11-30T05:15:54;10.55;;;5.72;;
10412;SDS011;5252;42.602;23.386;2022-11-30T05:18:21;10.52;;;8.10;;
10412;SDS011;5252;42.602;23.386;2022-11-30T05:57:16;11.52;;;7.90;;
10412;SDS011;5252;42.602;23.386;2022-11-30T06:00:21;10.13;;;8.35;;
10412;SDS011;5252;42.602;23.386;2022-11-30T06:02:48;8.73;;;7.15;;
10412;SDS011;5252;42.602;23.386;2022-11-30T06:05:29;8.07;;;6.32;;
10412;SDS011;5252;42.602;23.386;2022-11-30T06:11:27;5.03;;;4.53;;
10412;SDS011;5252;42.602;23.386;2022-11-30T06:14:04;6.20;;;5.22;;
10412;SDS011;5252;42.602;23.386;2022-11-30T06:16:39;8.48;;;6.97;;
10412;SDS011;5252;42.602;23.386;2022-11-30T06:19:09;9.90;;;7.65;;
10412;SDS011;5252;42.602;23.386;2022-11-30T06:21:39;9.40;;;8.23;;
10412;SDS011;5252;42.602;23.386;2022-11-30T06:24:10;10.70;;;8.05;;
10412;SDS011;5252;42.602;23.386;2022-11-30T06:26:43;13.43;;;10.65;;
10412;SDS011;5252;42.602;23.386;2022-11-30T06:29:31;15.48;;;13.00;;
10412;SDS011;5252;42.602;23.386;2022-11-30T06:34:57;13.35;;;9.98;;
10412;SDS011;5252;42.602;23.386;2022-11-30T06:37:45;11.40;;;8.02;;
10412;SDS011;5252;42.602;23.386;2022-11-30T06:40:28;15.75;;;11.43;;
10412;SDS011;5252;42.602;23.386;2022-11-30T06:45:58;10.88;;;9.50;;
10412;SDS011;5252;42.602;23.386;2022-11-30T06:48:35;10.40;;;9.30;;
10412;SDS011;5252;42.602;23.386;2022-11-30T06:51:25;10.65;;;8.50;;
10412;SDS011;5252;42.602;23.386;2022-11-30T06:54:11;8.60;;;7.32;;
10412;SDS011;5252;42.602;23.386;2022-11-30T06:56:38;10.32;;;8.32;;
10412;SDS011;5252;42.602;23.386;2022-11-30T06:59:31;7.47;;;6.22;;
10412;SDS011;5252;42.602;23.386;2022-11-30T07:02:29;7.07;;;5.50;;
10412;SDS011;5252;42.602;23.386;2022-11-30T07:05:23;7.68;;;5.80;;
10412;SDS011;5252;42.602;23.386;2022-11-30T07:07:59;5.57;;;5.00;;
10412;SDS011;5252;42.602;23.386;2022-11-30T07:10:35;5.93;;;4.72;;
10412;SDS011;5252;42.602;23.386;2022-11-30T07:13:08;5.32;;;4.72;;
10412;SDS011;5252;42.602;23.386;2022-11-30T07:15:43;5.70;;;4.95;;
10412;SDS011;5252;42.602;23.386;2022-11-30T07:18:18;6.32;;;5.32;;
10412;SDS011;5252;42.602;23.386;2022-11-30T07:20:49;6.57;;;5.53;;
10412;SDS011;5252;42.602;23.386;2022-11-30T07:23:34;8.85;;;5.85;;
10412;SDS011;5252;42.602;23.386;2022-11-30T07:29:22;6.45;;;5.13;;
10412;SDS011;5252;42.602;23.386;2022-11-30T07:32:10;6.95;;;5.70;;
10412;SDS011;5252;42.602;23.386;2022-11-30T07:35:07;6.50;;;4.35;;
10412;SDS011;5252;42.602;23.386;2022-11-30T07:40:50;4.05;;;3.45;;
10412;SDS011;5252;42.602;23.386;2022-11-30T07:43:37;4.25;;;3.00;;
10412;SDS011;5252;42.602;23.386;2022-11-30T07:49:09;3.05;;;2.70;;
10412;SDS011;5252;42.602;23.386;2022-11-30T07:51:58;4.43;;;2.97;;
10412;SDS011;5252;42.602;23.386;2022-11-30T07:54:30;3.10;;;2.80;;
10412;SDS011;5252;42.602;23.386;2022-11-30T07:57:01;3.35;;;3.05;;
10412;SDS011;5252;42.602;23.386;2022-11-30T07:59:40;5.70;;;4.43;;
10412;SDS011;5252;42.602;23.386;2022-11-30T08:02:12;4.88;;;4.10;;
10412;SDS011;5252;42.602;23.386;2022-11-30T08:04:45;4.60;;;3.65;;
10412;SDS011;5252;42.602;23.386;2022-11-30T08:07:35;4.82;;;3.75;;
10412;SDS011;5252;42.602;23.386;2022-11-30T08:10:16;5.13;;;3.90;;
10412;SDS011;5252;42.602;23.386;2022-11-30T08:12:50;5.75;;;3.92;;
10412;SDS011;5252;42.602;23.386;2022-11-30T08:15:18;5.72;;;5.13;;
10412;SDS011;5252;42.602;23.386;2022-11-30T08:18:01;4.45;;;3.97;;
10412;SDS011;5252;42.602;23.386;2022-11-30T08:20:31;5.70;;;4.40;;
10412;SDS011;5252;42.602;23.386;2022-11-30T08:23:04;3.97;;;3.20;;
10412;SDS011;5252;42.602;23.386;2022-11-30T08:25:39;6.13;;;3.90;;
10412;SDS011;5252;42.602;23.386;2022-11-30T08:28:11;5.32;;;4.40;;
10412;SDS011;5252;42.602;23.386;2022-11-30T08:30:44;5.00;;;4.07;;
10412;SDS011;5252;42.602;23.386;2022-11-30T08:33:12;9.90;;;6.80;;
10412;SDS011;5252;42.602;23.386;2022-11-30T08:38:28;9.43;;;7.35;;
10412;SDS011;5252;42.602;23.386;2022-11-30T08:40:58;8.77;;;6.75;;
10412;SDS011;5252;42.602;23.386;2022-11-30T08:43:45;6.60;;;4.72;;
10412;SDS011;5252;42.602;23.386;2022-11-30T08:46:18;6.22;;;4.53;;
10412;SDS011;5252;42.602;23.386;2022-11-30T08:49:00;5.22;;;4.10;;
10412;SDS011;5252;42.602;23.386;2022-11-30T08:51:27;4.10;;;3.70;;
10412;SDS011;5252;42.602;23.386;2022-11-30T08:54:06;6.80;;;4.00;;
10412;SDS011;5252;42.602;23.386;2022-11-30T08:56:39;3.85;;;3.30;;
10412;SDS011;5252;42.602;23.386;2022-11-30T08:59:12;3.53;;;3.00;;
10412;SDS011;5252;42.602;23.386;2022-11-30T09:01:48;3.40;;;3.10;;
10412;SDS011;5252;42.602;23.386;2022-11-30T09:07:31;3.97;;;2.78;;
10412;SDS011;5252;42.602;23.386;2022-11-30T09:10:00;4.15;;;3.30;;
10412;SDS011;5252;42.602;23.386;2022-11-30T09:12:27;3.55;;;3.15;;
10412;SDS011;5252;42.602;23.386;2022-11-30T09:14:55;3.88;;;3.45;;
10412;SDS011;5252;42.602;23.386;2022-11-30T09:17:22;4.32;;;3.00;;
10412;SDS011;5252;42.602;23.386;2022-11-30T09:19:49;3.28;;;2.80;;
10412;SDS011;5252;42.602;23.386;2022-11-30T09:22:19;3.83;;;3.15;;
10412;SDS011;5252;42.602;23.386;2022-11-30T09:24:47;5.03;;;3.33;;
10412;SDS011;5252;42.602;23.386;2022-11-30T09:27:16;4.53;;;3.85;;
10412;SDS011;5252;42.602;23.386;2022-11-30T09:29:43;5.45;;;3.88;;
10412;SDS011;5252;42.602;23.386;2022-11-30T09:32:12;5.60;;;4.20;;
10412;SDS011;5252;42.602;23.386;2022-11-30T09:34:46;6.60;;;4.15;;
10412;SDS011;5252;42.602;23.386;2022-11-30T09:37:13;4.63;;;3.08;;
10412;SDS011;5252;42.602;23.386;2022-11-30T09:39:41;4.30;;;3.90;;
10412;SDS011;5252;42.602;23.386;2022-11-30T09:42:19;4.82;;;3.80;;
10412;SDS011;5252;42.602;23.386;2022-11-30T09:44:58;4.38;;;3.30;;
10412;SDS011;5252;42.602;23.386;2022-11-30T09:47:40;4.40;;;3.75;;
10412;SDS011;5252;42.602;23.386;2022-11-30T09:50:10;4.40;;;3.83;;
10412;SDS011;5252;42.602;23.386;2022-11-30T09:52:39;5.93;;;4.38;;
10412;SDS011;5252;42.602;23.386;2022-11-30T09:55:08;5.10;;;3.90;;
10412;SDS011;5252;42.602;23.386;2022-11-30T10:00:33;4.35;;;3.75;;
10412;SDS011;5252;42.602;23.386;2022-11-30T10:03:02;6.38;;;3.90;;
10412;SDS011;5252;42.602;23.386;2022-11-30T10:05:40;4.47;;;3.63;;
10412;SDS011;5252;42.602;23.386;2022-11-30T10:08:15;4.60;;;3.58;;
10412;SDS011;5252;42.602;23.386;2022-11-30T10:11:06;4.07;;;3.38;;
10412;SDS011;5252;42.602;23.386;2022-11-30T10:13:39;4.32;;;3.35;;
10412;SDS011;5252;42.602;23.386;2022-11-30T10:16:39;3.20;;;2.85;;
10412;SDS011;5252;42.602;23.386;2022-11-30T10:25:30;5.72;;;4.07;;
10412;SDS011;5252;42.602;23.386;2022-11-30T10:31:02;5.88;;;4.88;;
10412;SDS011;5252;42.602;23.386;2022-11-30T10:33:36;5.38;;;4.57;;
10412;SDS011;5252;42.602;23.386;2022-11-30T10:36:09;4.97;;;4.47;;
10412;SDS011;5252;42.602;23.386;2022-11-30T10:38:57;4.70;;;3.72;;
10412;SDS011;5252;42.602;23.386;2022-11-30T10:41:44;4.18;;;3.40;;
10412;SDS011;5252;42.602;23.386;2022-11-30T10:44:13;6.40;;;4.30;;
10412;SDS011;5252;42.602;23.386;2022-11-30T10:55:34;3.10;;;2.70;;
10412;SDS011;5252;42.602;23.386;2022-11-30T10:58:09;3.20;;;2.60;;
10412;SDS011;5252;42.602;23.386;2022-11-30T11:01:01;3.40;;;2.53;;
10412;SDS011;5252;42.602;23.386;2022-11-30T11:07:12;3.40;;;2.92;;
10412;SDS011;5252;42.602;23.386;2022-11-30T11:09:42;5.00;;;3.35;;
10412;SDS011;5252;42.602;23.386;2022-11-30T11:12:38;5.22;;;3.47;;
10412;SDS011;5252;42.602;23.386;2022-11-30T11:15:16;4.10;;;3.55;;
10412;SDS011;5252;42.602;23.386;2022-11-30T11:17:48;3.97;;;3.30;;
10412;SDS011;5252;42.602;23.386;2022-11-30T11:20:31;5.55;;;4.00;;
10412;SDS011;5252;42.602;23.386;2022-11-30T11:23:02;5.80;;;4.22;;
10412;SDS011;5252;42.602;23.386;2022-11-30T11:25:33;4.47;;;3.78;;
10412;SDS011;5252;42.602;23.386;2022-11-30T11:31:14;6.10;;;5.50;;
10412;SDS011;5252;42.602;23.386;2022-11-30T11:33:48;4.95;;;3.85;;
10412;SDS011;5252;42.602;23.386;2022-11-30T11:36:25;5.07;;;4.00;;
10412;SDS011;5252;42.602;23.386;2022-11-30T11:38:55;5.28;;;4.40;;
10412;SDS011;5252;42.602;23.386;2022-11-30T11:41:30;8.23;;;5.15;;
10412;SDS011;5252;42.602;23.386;2022-11-30T11:44:02;12.63;;;10.57;;
10412;SDS011;5252;42.602;23.386;2022-11-30T11:46:35;6.97;;;4.30;;
10412;SDS011;5252;42.602;23.386;2022-11-30T11:49:05;3.47;;;2.90;;
10412;SDS011;5252;42.602;23.386;2022-11-30T11:51:35;4.97;;;2.90;;
10412;SDS011;5252;42.602;23.386;2022-11-30T11:54:07;4.20;;;3.10;;
10412;SDS011;5252;42.602;23.386;2022-11-30T11:56:37;3.28;;;2.38;;
10412;SDS011;5252;42.602;23.386;2022-11-30T11:59:06;4.13;;;2.85;;
10412;SDS011;5252;42.602;23.386;2022-11-30T12:01:42;4.15;;;3.00;;
10412;SDS011;5252;42.602;23.386;2022-11-30T12:04:15;3.97;;;3.08;;
10412;SDS011;5252;42.602;23.386;2022-11-30T12:06:47;3.22;;;2.63;;
10412;SDS011;5252;42.602;23.386;2022-11-30T12:09:23;3.60;;;2.80;;
10412;SDS011;5252;42.602;23.386;2022-11-30T12:11:51;5.38;;;4.15;;
10412;SDS011;5252;42.602;23.386;2022-11-30T12:14:18;7.80;;;4.70;;
10412;SDS011;5252;42.602;23.386;2022-11-30T12:19:45;8.02;;;5.55;;
10412;SDS011;5252;42.602;23.386;2022-11-30T12:22:22;7.13;;;6.13;;
10412;SDS011;5252;42.602;23.386;2022-11-30T12:24:59;6.90;;;4.55;;
10412;SDS011;5252;42.602;23.386;2022-11-30T12:27:33;5.28;;;3.88;;
10412;SDS011;5252;42.602;23.386;2022-11-30T12:30:04;5.78;;;4.38;;
10412;SDS011;5252;42.602;23.386;2022-11-30T12:32:53;5.32;;;4.15;;
10412;SDS011;5252;42.602;23.386;2022-11-30T12:35:35;3.30;;;3.00;;
10412;SDS011;5252;42.602;23.386;2022-11-30T12:38:09;6.35;;;4.03;;
10412;SDS011;5252;42.602;23.386;2022-11-30T12:43:56;5.60;;;4.45;;
10412;SDS011;5252;42.602;23.386;2022-11-30T12:49:34;5.97;;;4.90;;
10412;SDS011;5252;42.602;23.386;2022-11-30T12:52:33;6.18;;;4.72;;
10412;SDS011;5252;42.602;23.386;2022-11-30T12:55:27;7.32;;;4.93;;
10412;SDS011;5252;42.602;23.386;2022-11-30T12:58:03;5.97;;;4.35;;
10412;SDS011;5252;42.602;23.386;2022-11-30T13:00:52;4.93;;;4.40;;
10412;SDS011;5252;42.602;23.386;2022-11-30T13:03:38;6.78;;;4.75;;
10412;SDS011;5252;42.602;23.386;2022-11-30T13:17:53;8.05;;;4.35;;
10412;SDS011;5252;42.602;23.386;2022-11-30T13:20:21;5.55;;;5.00;;
10412;SDS011;5252;42.602;23.386;2022-11-30T13:22:49;8.82;;;5.55;;
10412;SDS011;5252;42.602;23.386;2022-11-30T13:25:21;6.68;;;4.75;;
10412;SDS011;5252;42.602;23.386;2022-11-30T13:27:53;5.35;;;3.70;;
10412;SDS011;5252;42.602;23.386;2022-11-30T13:30:26;4.78;;;3.83;;
10412;SDS011;5252;42.602;23.386;2022-11-30T13:33:07;5.47;;;3.80;;
10412;SDS011;5252;42.602;23.386;2022-11-30T13:35:53;4.97;;;3.85;;
10412;SDS011;5252;42.602;23.386;2022-11-30T13:38:23;5.63;;;3.83;;
10412;SDS011;5252;42.602;23.386;2022-11-30T13:40:55;4.80;;;3.55;;
10412;SDS011;5252;42.602;23.386;2022-11-30T13:43:23;6.10;;;3.70;;
10412;SDS011;5252;42.602;23.386;2022-11-30T13:46:03;4.50;;;3.45;;
10412;SDS011;5252;42.602;23.386;2022-11-30T13:48:32;5.13;;;3.88;;
10412;SDS011;5252;42.602;23.386;2022-11-30T13:51:05;4.03;;;3.63;;
10412;SDS011;5252;42.602;23.386;2022-11-30T13:53:33;4.10;;;3.55;;
10412;SDS011;5252;42.602;23.386;2022-11-30T13:56:02;5.75;;;3.25;;
10412;SDS011;5252;42.602;23.386;2022-11-30T13:58:32;4.50;;;3.47;;
10412;SDS011;5252;42.602;23.386;2022-11-30T14:06:46;20.67;;;11.35;;
10412;SDS011;5252;42.602;23.386;2022-11-30T14:09:16;9.10;;;6.03;;
10412;SDS011;5252;42.602;23.386;2022-11-30T14:14:44;9.50;;;5.93;;
10412;SDS011;5252;42.602;23.386;2022-11-30T14:17:18;7.95;;;5.45;;
10412;SDS011;5252;42.602;23.386;2022-11-30T14:19:45;8.35;;;4.70;;
10412;SDS011;5252;42.602;23.386;2022-11-30T14:22:14;6.22;;;4.55;;
10412;SDS011;5252;42.602;23.386;2022-11-30T14:24:42;8.98;;;6.43;;
10412;SDS011;5252;42.602;23.386;2022-11-30T14:27:17;6.82;;;5.65;;
10412;SDS011;5252;42.602;23.386;2022-11-30T14:29:56;8.30;;;6.55;;
10412;SDS011;5252;42.602;23.386;2022-11-30T14:32:35;7.03;;;6.10;;
10412;SDS011;5252;42.602;23.386;2022-11-30T14:35:08;3.30;;;2.78;;
10412;SDS011;5252;42.602;23.386;2022-11-30T14:37:44;3.20;;;2.78;;
10412;SDS011;5252;42.602;23.386;2022-11-30T14:40:17;1.85;;;1.70;;
10412;SDS011;5252;42.602;23.386;2022-11-30T14:42:47;2.08;;;1.88;;
10412;SDS011;5252;42.602;23.386;2022-11-30T14:45:18;4.50;;;3.20;;
10412;SDS011;5252;42.602;23.386;2022-11-30T14:47:48;3.95;;;2.95;;
10412;SDS011;5252;42.602;23.386;2022-11-30T14:50:19;3.33;;;2.25;;
10412;SDS011;5252;42.602;23.386;2022-11-30T14:52:54;3.47;;;2.45;;
10412;SDS011;5252;42.602;23.386;2022-11-30T14:55:32;2.60;;;2.40;;
10412;SDS011;5252;42.602;23.386;2022-11-30T14:58:07;2.60;;;2.40;;
10412;SDS011;5252;42.602;23.386;2022-11-30T15:00:41;6.75;;;6.20;;
10412;SDS011;5252;42.602;23.386;2022-11-30T15:03:14;9.13;;;8.23;;
10412;SDS011;5252;42.602;23.386;2022-11-30T15:05:47;4.63;;;4.22;;
10412;SDS011;5252;42.602;23.386;2022-11-30T15:08:18;2.45;;;2.25;;
10412;SDS011;5252;42.602;23.386;2022-11-30T15:10:50;3.08;;;2.80;;
10412;SDS011;5252;42.602;23.386;2022-11-30T15:13:17;2.05;;;1.80;;
10412;SDS011;5252;42.602;23.386;2022-11-30T15:15:51;4.20;;;3.03;;
10412;SDS011;5252;42.602;23.386;2022-11-30T15:18:21;2.67;;;2.30;;
10412;SDS011;5252;42.602;23.386;2022-11-30T15:20:52;2.70;;;2.17;;
10412;SDS011;5252;42.602;23.386;2022-11-30T15:23:29;3.22;;;1.60;;
10412;SDS011;5252;42.602;23.386;2022-11-30T15:25:58;1.60;;;1.50;;
10412;SDS011;5252;42.602;23.386;2022-11-30T15:28:30;2.20;;;1.52;;
10412;SDS011;5252;42.602;23.386;2022-11-30T15:31:08;1.70;;;1.60;;
10412;SDS011;5252;42.602;23.386;2022-11-30T15:33:42;2.05;;;1.60;;
10412;SDS011;5252;42.602;23.386;2022-11-30T15:36:12;5.25;;;3.67;;
10412;SDS011;5252;42.602;23.386;2022-11-30T15:38:46;89.57;;;60.55;;
10412;SDS011;5252;42.602;23.386;2022-11-30T15:41:19;9.40;;;6.72;;
10412;SDS011;5252;42.602;23.386;2022-11-30T15:43:49;14.07;;;9.93;;
10412;SDS011;5252;42.602;23.386;2022-11-30T15:46:30;10.57;;;7.60;;
10412;SDS011;5252;42.602;23.386;2022-11-30T16:08:00;4.90;;;4.03;;
10412;SDS011;5252;42.602;23.386;2022-11-30T16:10:28;4.80;;;4.30;;
10412;SDS011;5252;42.602;23.386;2022-11-30T16:12:58;6.72;;;4.63;;
10412;SDS011;5252;42.602;23.386;2022-11-30T16:15:25;7.22;;;6.38;;
10412;SDS011;5252;42.602;23.386;2022-11-30T16:17:53;7.57;;;6.40;;
10412;SDS011;5252;42.602;23.386;2022-11-30T16:20:21;11.00;;;7.38;;
10412;SDS011;5252;42.602;23.386;2022-11-30T16:22:48;8.35;;;5.80;;
10412;SDS011;5252;42.602;23.386;2022-11-30T16:25:17;16.85;;;8.50;;
10412;SDS011;5252;42.602;23.386;2022-11-30T16:27:44;12.75;;;10.02;;
10412;SDS011;5252;42.602;23.386;2022-11-30T16:30:13;8.88;;;6.70;;
10412;SDS011;5252;42.602;23.386;2022-11-30T16:32:40;11.35;;;8.38;;
10412;SDS011;5252;42.602;23.386;2022-11-30T16:35:09;8.90;;;7.55;;
10412;SDS011;5252;42.602;23.386;2022-11-30T16:37:40;8.02;;;6.47;;
10412;SDS011;5252;42.602;23.386;2022-11-30T16:40:07;8.68;;;6.28;;
10412;SDS011;5252;42.602;23.386;2022-11-30T16:42:35;8.23;;;6.40;;
10412;SDS011;5252;42.602;23.386;2022-11-30T16:45:02;25.23;;;22.60;;
10412;SDS011;5252;42.602;23.386;2022-11-30T16:47:29;13.15;;;5.55;;
10412;SDS011;5252;42.602;23.386;2022-11-30T16:49:55;13.45;;;10.27;;
10412;SDS011;5252;42.602;23.386;2022-11-30T16:52:22;8.40;;;6.20;;
10412;SDS011;5252;42.602;23.386;2022-11-30T16:54:49;9.55;;;7.22;;
10412;SDS011;5252;42.602;23.386;2022-11-30T16:57:15;8.85;;;6.35;;
10412;SDS011;5252;42.602;23.386;2022-11-30T16:59:44;9.95;;;8.63;;
10412;SDS011;5252;42.602;23.386;2022-11-30T17:02:12;8.07;;;6.35;;
10412;SDS011;5252;42.602;23.386;2022-11-30T17:04:40;9.05;;;7.38;;
10412;SDS011;5252;42.602;23.386;2022-11-30T17:07:08;7.03;;;6.32;;
10412;SDS011;5252;42.602;23.386;2022-11-30T17:09:35;9.35;;;6.70;;
10412;SDS011;5252;42.602;23.386;2022-11-30T17:12:01;8.60;;;6.80;;
10412;SDS011;5252;42.602;23.386;2022-11-30T17:14:28;6.90;;;6.18;;
10412;SDS011;5252;42.602;23.386;2022-11-30T17:16:56;8.88;;;7.45;;
10412;SDS011;5252;42.602;23.386;2022-11-30T17:19:23;12.60;;;11.30;;
10412;SDS011;5252;42.602;23.386;2022-11-30T17:21:50;10.68;;;8.10;;
10412;SDS011;5252;42.602;23.386;2022-11-30T17:24:16;9.13;;;7.38;;